Time;durP1;ratioP1;P1;durP2;ratioP2;P2;SDS_P1;SDS_P2;PMS_P1;PMS_P2;Temp;Humidity;BMP_temperature;BMP_pressure;BME280_temperature;BME280_humidity;BME280_pressure;Samples;Min_cycle;Max_cycle;Signal;HPM_P1;HPM_P2
2021/12/08 00:00:30;;;;;;;;;;;;;;;;;;4361254;32;20027;-72
2021/12/08 00:03:16;;;;;;;16.23;10.40;;;;;;;;;;4360748;32;19938;-72
2021/12/08 00:05:43;;;;;;;18.98;10.93;;;;;;;;;;4361187;32;20319;-72
2021/12/08 00:08:11;;;;;;;21.80;10.98;;;;;;;;;;4347199;33;20467;-72
2021/12/08 00:11:03;;;;;;;16.45;10.50;;;;;;;;;;4360672;32;20028;-72
2021/12/08 00:14:06;;;;;;;;;;;;;;;;;;;;;
2021/12/08 00:16:41;;;;;;;20.50;11.13;;;;;;;;;;4299810;33;20410;-72
2021/12/08 00:19:08;;;;;;;16.08;9.85;;;;;;;;;;4300035;33;20559;-72
2021/12/08 00:21:37;;;;;;;19.12;10.30;;;;;;;;;;4357927;33;20370;-72
2021/12/08 00:24:07;;;;;;;16.55;9.15;;;;;;;;;;4360570;32;20053;-72
2021/12/08 00:26:42;;;;;;;18.12;10.32;;;;;;;;;;4360626;32;20056;-72
2021/12/08 00:29:10;;;;;;;18.95;10.70;;;;;;;;;;4361498;32;20057;-72
2021/12/08 00:31:36;;;;;;;14.15;8.70;;;;;;;;;;4360230;33;20082;-72
2021/12/08 00:34:04;;;;;;;;;;;;;;;;;;4361297;32;20031;-72
2021/12/08 00:36:54;;;;;;;17.70;8.80;;;;;;;;;;4360519;32;20021;-72
2021/12/08 00:39:20;;;;;;;16.70;10.43;;;;;;;;;;4361159;32;20421;-72
2021/12/08 00:41:47;;;;;;;;;;;;;;;;;;4360859;32;20036;-72
2021/12/08 00:44:24;;;;;;;13.60;9.35;;;;;;;;;;4360341;33;20321;-72
2021/12/08 00:46:49;;;;;;;15.82;8.77;;;;;;;;;;4360435;33;20086;-72
2021/12/08 00:51:59;;;;;;;16.52;9.48;;;;;;;;;;4360711;32;19928;-72
2021/12/08 00:57:09;;;;;;;17.42;9.57;;;;;;;;;;4376088;32;19941;-72
2021/12/08 00:59:44;;;;;;;;;;;;;;;;;;;;;
2021/12/08 01:02:38;;;;;;;;;;;;;;;;;;;;;
2021/12/08 01:05:06;;;;;;;16.12;10.80;;;;;;;;;;4363581;32;20097;-73
2021/12/08 01:07:47;;;;;;;17.95;10.88;;;;;;;;;;4375775;32;20049;-72
2021/12/08 01:10:50;;;;;;;14.25;9.23;;;;;;;;;;4373770;32;20019;-73
2021/12/08 01:13:36;;;;;;;13.23;10.15;;;;;;;;;;4375218;32;20081;-73
2021/12/08 01:16:01;;;;;;;16.58;9.77;;;;;;;;;;4361499;32;20052;-72
2021/12/08 01:18:26;;;;;;;;;;;;;;;;;;4376359;32;20019;-73
2021/12/08 01:21:05;;;;;;;18.27;10.82;;;;;;;;;;4375268;32;19985;-72
2021/12/08 01:23:49;;;;;;;15.55;10.40;;;;;;;;;;4376034;32;20110;-73
2021/12/08 01:26:24;;;;;;;15.73;9.85;;;;;;;;;;4375047;32;20030;-73
2021/12/08 01:28:57;;;;;;;18.75;11.30;;;;;;;;;;4361366;32;20455;-73
2021/12/08 01:31:25;;;;;;;16.98;11.12;;;;;;;;;;4378196;32;20064;-73
2021/12/08 01:33:50;;;;;;;19.98;11.20;;;;;;;;;;4377979;32;20024;-72
2021/12/08 01:36:16;;;;;;;;;;;;;;;;;;4377977;32;20503;-73
2021/12/08 01:38:41;;;;;;;18.25;10.40;;;;;;;;;;4376806;32;20229;-73
2021/12/08 01:41:06;;;;;;;;;;;;;;;;;;4364694;32;20027;-72
2021/12/08 01:43:40;;;;;;;15.27;10.85;;;;;;;;;;4377718;32;19942;-73
2021/12/08 01:46:07;;;;;;;17.62;10.73;;;;;;;;;;4364546;32;20053;-72
2021/12/08 01:48:36;;;;;;;18.10;11.48;;;;;;;;;;4379051;32;20315;-73
2021/12/08 01:51:20;;;;;;;23.98;10.93;;;;;;;;;;4364103;32;20049;-73
2021/12/08 01:53:48;;;;;;;18.87;8.93;;;;;;;;;;4364780;32;20357;-73
2021/12/08 01:56:22;;;;;;;20.48;10.23;;;;;;;;;;4377274;32;20057;-73
2021/12/08 01:58:57;;;;;;;23.27;9.48;;;;;;;;;;4378521;32;20015;-73
2021/12/08 02:01:24;;;;;;;15.00;8.77;;;;;;;;;;4378005;32;20019;-72
2021/12/08 02:03:50;;;;;;;19.60;10.70;;;;;;;;;;4378572;32;20058;-73
2021/12/08 02:06:17;;;;;;;;;;;;;;;;;;4377879;32;20321;-72
2021/12/08 02:08:48;;;;;;;30.08;9.98;;;;;;;;;;4376957;32;20325;-72
2021/12/08 02:11:24;;;;;;;;;;;;;;;;;;;;;
2021/12/08 02:13:59;;;;;;;24.00;10.18;;;;;;;;;;4358633;32;20031;-72
2021/12/08 02:16:25;;;;;;;19.23;9.25;;;;;;;;;;4364076;32;20093;-72
2021/12/08 02:18:52;;;;;;;;;;;;;;;;;;4379318;32;20027;-74
2021/12/08 02:21:25;;;;;;;;;;;;;;;;;;4378039;32;20316;-72
2021/12/08 02:24:04;;;;;;;24.10;9.98;;;;;;;;;;4377333;32;20307;-72
2021/12/08 02:26:30;;;;;;;35.78;12.45;;;;;;;;;;4376959;32;20019;-72
2021/12/08 02:28:55;;;;;;;;;;;;;;;;;;4377636;32;20019;-72
2021/12/08 02:31:31;;;;;;;23.77;10.00;;;;;;;;;;4377477;32;20280;-72
2021/12/08 02:58:02;;;;;;;13.48;4.82;;;;;;;;;;4377239;32;20062;-72
2021/12/08 03:00:36;;;;;;;11.23;4.93;;;;;;;;;;4376682;32;20046;-73
2021/12/08 03:03:07;;;;;;;11.75;4.97;;;;;;;;;;4377046;32;20047;-73
2021/12/08 03:05:32;;;;;;;12.95;5.40;;;;;;;;;;4377405;32;20019;-73
2021/12/08 03:08:08;;;;;;;;;;;;;;;;;;;;;
2021/12/08 03:11:27;;;;;;;16.15;5.05;;;;;;;;;;4374927;32;19960;-73
2021/12/08 03:13:28;;;;;;;14.35;4.35;;;;;;;;;;4370718;32;20069;-72
2021/12/08 03:15:56;;;;;;;10.10;3.70;;;;;;;;;;4377110;32;20227;-72
2021/12/08 03:18:22;;;;;;;14.00;3.83;;;;;;;;;;4375626;32;20380;-72
2021/12/08 03:20:51;;;;;;;14.40;5.25;;;;;;;;;;4375890;32;20031;-72
2021/12/08 03:24:08;;;;;;;11.85;4.55;;;;;;;;;;4376601;32;20058;-73
2021/12/08 03:26:35;;;;;;;15.63;4.25;;;;;;;;;;4315683;33;20032;-73
2021/12/08 03:29:16;;;;;;;19.87;4.37;;;;;;;;;;4371025;32;20448;-73
2021/12/08 03:31:46;;;;;;;13.10;3.70;;;;;;;;;;4375308;32;20018;-72
2021/12/08 03:34:12;;;;;;;13.75;4.30;;;;;;;;;;4377384;32;20381;-73
2021/12/08 03:36:39;;;;;;;;;;;;;;;;;;4376223;32;20057;-73
2021/12/08 03:39:06;;;;;;;16.40;4.25;;;;;;;;;;4376419;32;19942;-73
2021/12/08 03:41:35;;;;;;;17.48;4.90;;;;;;;;;;4376270;32;20458;-73
2021/12/08 03:44:01;;;;;;;11.20;3.95;;;;;;;;;;4375818;32;20084;-72
2021/12/08 03:46:31;;;;;;;17.87;4.43;;;;;;;;;;4362437;32;20031;-73
2021/12/08 03:49:05;;;;;;;18.40;4.87;;;;;;;;;;4362540;32;20027;-73
2021/12/08 03:51:41;;;;;;;14.82;4.60;;;;;;;;;;4375719;32;20392;-73
2021/12/08 03:54:07;;;;;;;23.55;4.55;;;;;;;;;;4375909;32;20019;-72
2021/12/08 03:56:34;;;;;;;;;;;;;;;;;;4376848;32;20054;-73
2021/12/08 03:58:59;;;;;;;;;;;;;;;;;;4376209;32;19934;-73
2021/12/08 04:01:44;;;;;;;;;;;;;;;;;;;;;
2021/12/08 04:04:30;;;;;;;24.23;5.97;;;;;;;;;;4376291;32;20053;-73
2021/12/08 04:07:03;;;;;;;19.12;5.18;;;;;;;;;;4375632;32;20340;-73
2021/12/08 04:09:37;;;;;;;19.85;5.35;;;;;;;;;;4362476;32;20019;-73
2021/12/08 04:12:03;;;;;;;16.05;4.55;;;;;;;;;;4375649;32;20398;-73
2021/12/08 04:17:27;;;;;;;19.37;5.93;;;;;;;;;;4349285;32;19965;-73
2021/12/08 04:19:54;;;;;;;19.37;4.75;;;;;;;;;;4345415;33;20050;-73
2021/12/08 04:22:23;;;;;;;10.70;4.37;;;;;;;;;;4345809;33;20087;-72
2021/12/08 04:25:05;;;;;;;;;;;;;;;;;;;;;
2021/12/08 04:27:33;;;;;;;15.32;4.75;;;;;;;;;;4344246;33;20421;-73
2021/12/08 04:29:58;;;;;;;12.18;3.62;;;;;;;;;;4345780;33;20020;-73
2021/12/08 04:32:24;;;;;;;;;;;;;;;;;;4346305;33;20137;-73
2021/12/08 04:34:54;;;;;;;14.73;3.83;;;;;;;;;;4345821;33;20261;-73
2021/12/08 04:37:26;;;;;;;12.13;3.25;;;;;;;;;;4345667;33;20036;-73
2021/12/08 04:40:10;;;;;;;12.68;3.25;;;;;;;;;;4346439;33;20319;-73
2021/12/08 04:43:00;;;;;;;7.45;3.10;;;;;;;;;;4346221;33;20046;-73
2021/12/08 04:45:33;;;;;;;16.95;2.47;;;;;;;;;;4345617;33;20394;-73
2021/12/08 04:50:59;;;;;;;11.60;2.58;;;;;;;;;;4345659;33;20015;-73
2021/12/08 04:53:42;;;;;;;12.37;2.50;;;;;;;;;;4345156;33;20042;-73
2021/12/08 05:00:23;;;;;;;9.32;2.15;;;;;;;;;;4346513;33;20030;-73
2021/12/08 05:07:46;;;;;;;4.95;1.80;;;;;;;;;;4348470;33;20058;-73
2021/12/08 05:10:16;;;;;;;6.65;2.10;;;;;;;;;;4346686;33;20020;-73
2021/12/08 05:12:52;;;;;;;9.90;2.22;;;;;;;;;;4348507;33;20024;-73
2021/12/08 05:15:27;;;;;;;9.48;2.78;;;;;;;;;;4349531;33;20077;-73
2021/12/08 05:18:24;;;;;;;8.68;2.60;;;;;;;;;;4348645;33;20088;-72
2021/12/08 05:21:04;;;;;;;9.40;3.15;;;;;;;;;;4348618;33;20028;-72
2021/12/08 05:23:58;;;;;;;6.45;2.28;;;;;;;;;;4348775;33;20024;-72
2021/12/08 05:26:57;;;;;;;;;;;;;;;;;;;;;
2021/12/08 05:29:26;;;;;;;16.08;3.25;;;;;;;;;;4343131;33;20362;-73
2021/12/08 05:35:10;;;;;;;14.13;3.05;;;;;;;;;;4348491;33;20361;-73
2021/12/08 05:37:35;;;;;;;11.40;3.33;;;;;;;;;;4348043;33;20311;-73
2021/12/08 05:40:00;;;;;;;;;;;;;;;;;;4348766;33;20073;-74
2021/12/08 05:42:35;;;;;;;13.20;2.95;;;;;;;;;;4348459;33;19957;-73
2021/12/08 05:45:01;;;;;;;14.45;2.95;;;;;;;;;;4348995;33;20015;-74
2021/12/08 05:47:42;;;;;;;;;;;;;;;;;;;;;
2021/12/08 05:50:08;;;;;;;17.45;3.53;;;;;;;;;;4348490;33;19942;-73
2021/12/08 05:52:54;;;;;;;11.20;3.15;;;;;;;;;;4348744;33;20093;-73
2021/12/08 05:55:19;;;;;;;11.15;3.62;;;;;;;;;;4347832;33;20040;-74
2021/12/08 05:57:45;;;;;;;;;;;;;;;;;;4348400;33;20378;-73
2021/12/08 06:00:12;;;;;;;12.65;3.50;;;;;;;;;;4347976;33;19990;-73
2021/12/08 06:02:50;;;;;;;11.70;2.80;;;;;;;;;;4347363;33;20102;-73
2021/12/08 06:05:26;;;;;;;;;;;;;;;;;;;;;
2021/12/08 06:07:52;;;;;;;15.25;3.20;;;;;;;;;;4347999;33;20028;-73
2021/12/08 06:10:17;;;;;;;;;;;;;;;;;;4348124;33;20024;-73
2021/12/08 06:12:43;;;;;;;10.42;2.96;;;;;;;;;;4347813;33;19995;-73
2021/12/08 06:15:08;;;;;;;;;;;;;;;;;;4334199;33;20086;-72
2021/12/08 06:17:34;;;;;;;12.04;3.06;;;;;;;;;;4348228;33;19935;-72
2021/12/08 06:20:01;;;;;;;;;;;;;;;;;;4346821;33;20062;-74
2021/12/08 06:22:28;;;;;;;17.67;3.55;;;;;;;;;;4347748;33;19953;-74
2021/12/08 06:24:54;;;;;;;9.07;2.50;;;;;;;;;;4347631;33;20028;-73
2021/12/08 06:27:19;;;;;;;;;;;;;;;;;;4348223;33;20090;-73
2021/12/08 06:29:46;;;;;;;17.10;3.40;;;;;;;;;;4346670;33;19947;-73
2021/12/08 06:32:14;;;;;;;8.77;2.28;;;;;;;;;;4347206;33;20036;-73
2021/12/08 06:34:43;;;;;;;13.88;3.78;;;;;;;;;;4347503;33;20020;-72
2021/12/08 06:37:13;;;;;;;14.55;3.05;;;;;;;;;;4347349;33;20322;-72
2021/12/08 06:39:41;;;;;;;14.73;3.20;;;;;;;;;;4346061;33;20050;-72
2021/12/08 06:42:08;;;;;;;12.40;2.67;;;;;;;;;;4346934;33;20304;-72
2021/12/08 06:44:47;;;;;;;15.35;3.92;;;;;;;;;;4347081;33;20062;-73
2021/12/08 06:47:19;;;;;;;13.57;3.22;;;;;;;;;;4347588;33;20015;-72
2021/12/08 06:49:45;;;;;;;12.07;3.40;;;;;;;;;;4346946;33;20043;-73
2021/12/08 06:52:15;;;;;;;10.77;2.78;;;;;;;;;;4346460;33;20073;-75
2021/12/08 06:54:43;;;;;;;14.90;2.72;;;;;;;;;;4346904;33;20049;-73
2021/12/08 06:57:17;;;;;;;17.45;3.87;;;;;;;;;;4347264;33;20032;-73
2021/12/08 06:59:54;;;;;;;15.50;3.17;;;;;;;;;;4347570;33;20042;-73
2021/12/08 07:02:46;;;;;;;13.60;3.00;;;;;;;;;;4347104;33;20043;-73
2021/12/08 07:05:13;;;;;;;16.17;3.25;;;;;;;;;;4346931;33;20106;-73
2021/12/08 07:07:44;;;;;;;9.05;2.35;;;;;;;;;;4347047;33;20069;-73
2021/12/08 07:10:48;;;;;;;;;;;;;;;;;;;;;
2021/12/08 07:16:23;;;;;;;16.48;3.50;;;;;;;;;;4286465;33;20028;-73
2021/12/08 07:18:56;;;;;;;13.62;3.65;;;;;;;;;;4298347;33;20471;-73
2021/12/08 07:21:43;;;;;;;18.77;3.30;;;;;;;;;;4334385;33;20035;-73
2021/12/08 07:24:32;;;;;;;12.18;3.08;;;;;;;;;;4347474;33;20027;-73
2021/12/08 07:26:59;;;;;;;15.73;3.50;;;;;;;;;;4340212;33;20020;-74
2021/12/08 07:29:30;;;;;;;8.48;2.83;;;;;;;;;;4346392;33;20086;-73
2021/12/08 07:31:58;;;;;;;14.27;3.83;;;;;;;;;;4346354;33;20323;-71
2021/12/08 07:34:25;;;;;;;16.98;4.97;;;;;;;;;;4346679;33;20023;-74
2021/12/08 07:36:59;;;;;;;10.60;2.75;;;;;;;;;;4346338;33;20071;-73
2021/12/08 07:39:28;;;;;;;11.63;2.65;;;;;;;;;;4346902;33;20499;-72
2021/12/08 07:41:57;;;;;;;12.60;3.62;;;;;;;;;;4346244;33;20024;-73
2021/12/08 07:44:23;;;;;;;20.50;3.90;;;;;;;;;;4345002;33;20070;-73
2021/12/08 07:46:48;;;;;;;;;;;;;;;;;;4346446;33;20052;-73
2021/12/08 07:49:25;;;;;;;10.27;2.90;;;;;;;;;;4346291;33;19986;-73
2021/12/08 07:52:21;;;;;;;9.20;3.60;;;;;;;;;;4346893;33;20381;-73
2021/12/08 07:55:00;;;;;;;9.10;3.05;;;;;;;;;;4341276;33;20115;-73
2021/12/08 07:57:30;;;;;;;9.93;3.20;;;;;;;;;;4345961;33;20035;-73
2021/12/08 07:59:57;;;;;;;12.85;3.92;;;;;;;;;;4346331;33;20023;-73
2021/12/08 08:02:27;;;;;;;16.12;3.97;;;;;;;;;;4345856;33;20053;-74
2021/12/08 08:04:55;;;;;;;13.55;3.47;;;;;;;;;;4346119;33;20047;-73
2021/12/08 08:07:34;;;;;;;17.05;4.75;;;;;;;;;;4345807;33;20024;-72
2021/12/08 08:10:01;;;;;;;12.77;4.70;;;;;;;;;;4346373;33;20074;-72
2021/12/08 08:12:29;;;;;;;12.20;3.60;;;;;;;;;;4345944;33;20046;-72
2021/12/08 08:14:58;;;;;;;11.05;3.28;;;;;;;;;;4345842;33;20055;-73
2021/12/08 08:17:30;;;;;;;10.23;3.90;;;;;;;;;;4344835;33;20094;-72
2021/12/08 08:19:57;;;;;;;9.35;2.80;;;;;;;;;;4345833;33;20020;-73
2021/12/08 08:22:26;;;;;;;15.57;3.47;;;;;;;;;;4332851;33;20032;-73
2021/12/08 08:24:52;;;;;;;12.80;2.85;;;;;;;;;;4332126;33;20430;-73
2021/12/08 08:27:17;;;;;;;13.30;3.53;;;;;;;;;;4345804;33;20032;-73
2021/12/08 08:29:45;;;;;;;;;;;;;;;;;;4346124;33;20043;-73
2021/12/08 08:32:22;;;;;;;;;;;;;;;;;;;;;
2021/12/08 08:34:54;;;;;;;15.70;2.87;;;;;;;;;;4360131;32;20061;-72
2021/12/08 08:37:19;;;;;;;17.35;2.65;;;;;;;;;;4360820;32;20035;-73
2021/12/08 08:39:44;;;;;;;;;;;;;;;;;;4361191;32;20086;-74
2021/12/08 08:42:13;;;;;;;8.52;2.22;;;;;;;;;;4360324;32;19948;-73
2021/12/08 08:44:47;;;;;;;11.73;2.58;;;;;;;;;;4359992;32;20385;-74
2021/12/08 08:47:37;;;;;;;10.43;3.22;;;;;;;;;;4360618;32;20039;-73
2021/12/08 08:50:11;;;;;;;9.38;2.45;;;;;;;;;;4360994;32;20035;-73
2021/12/08 08:52:40;;;;;;;8.13;2.95;;;;;;;;;;4360856;32;20031;-72
2021/12/08 08:55:10;;;;;;;10.75;2.30;;;;;;;;;;4359308;33;20073;-73
2021/12/08 08:57:36;;;;;;;17.85;2.72;;;;;;;;;;4360587;33;20146;-73
2021/12/08 09:00:36;;;;;;;6.10;2.45;;;;;;;;;;4360394;33;20440;-73
2021/12/08 09:03:04;;;;;;;12.73;2.80;;;;;;;;;;4360062;33;20092;-74
2021/12/08 09:05:37;;;;;;;6.87;2.42;;;;;;;;;;4360008;33;20070;-73
2021/12/08 09:08:07;;;;;;;14.43;3.92;;;;;;;;;;4360113;33;20057;-74
2021/12/08 09:11:09;;;;;;;7.55;2.83;;;;;;;;;;4360229;33;20035;-73
2021/12/08 09:13:42;;;;;;;12.13;3.08;;;;;;;;;;4360021;33;20538;-73
2021/12/08 09:16:15;;;;;;;10.38;2.70;;;;;;;;;;4360385;33;20039;-73
2021/12/08 09:19:05;;;;;;;10.15;3.08;;;;;;;;;;4360458;33;20027;-73
2021/12/08 09:21:37;;;;;;;9.70;2.85;;;;;;;;;;4360254;33;20027;-73
2021/12/08 09:24:20;;;;;;;6.87;2.97;;;;;;;;;;4360906;33;20065;-74
2021/12/08 09:26:48;;;;;;;10.02;3.12;;;;;;;;;;4360084;33;20133;-73
2021/12/08 09:29:16;;;;;;;9.80;2.95;;;;;;;;;;4359960;33;20070;-73
2021/12/08 09:31:44;;;;;;;5.93;2.85;;;;;;;;;;4346646;33;20444;-73
2021/12/08 09:34:10;;;;;;;16.10;4.45;;;;;;;;;;4360118;33;20032;-72
2021/12/08 09:36:35;;;;;;;;;;;;;;;;;;4360492;33;20082;-74
2021/12/08 09:39:03;;;;;;;10.95;3.17;;;;;;;;;;4360170;33;20324;-72
2021/12/08 09:42:18;;;;;;;;;;;;;;;;;;;;;
2021/12/08 09:44:41;;;;;;;9.82;2.70;;;;;;;;;;4357233;33;20035;-74
2021/12/08 09:47:06;;;;;;;10.23;3.50;;;;;;;;;;4360140;33;20085;-74
2021/12/08 09:49:39;;;;;;;;;;;;;;;;;;4360685;32;20031;-73
2021/12/08 09:52:15;;;;;;;17.37;2.87;;;;;;;;;;4362734;33;19970;-74
2021/12/08 09:54:41;;;;;;;7.47;2.90;;;;;;;;;;4362538;32;20085;-72
2021/12/08 09:57:13;;;;;;;;;;;;;;;;;;4362385;32;20032;-73
2021/12/08 09:59:46;;;;;;;10.93;3.70;;;;;;;;;;4363296;32;19981;-73
2021/12/08 10:02:25;;;;;;;10.85;3.50;;;;;;;;;;4362691;32;20035;-73
2021/12/08 10:04:50;;;;;;;11.07;3.47;;;;;;;;;;4363314;32;20027;-72
2021/12/08 10:07:16;;;;;;;;;;;;;;;;;;4362414;32;20054;-73
2021/12/08 10:09:50;;;;;;;5.70;2.60;;;;;;;;;;4348636;33;19942;-74
2021/12/08 10:12:26;;;;;;;7.55;3.20;;;;;;;;;;4360092;32;20047;-73
2021/12/08 10:14:59;;;;;;;;;;;;;;;;;;4364004;32;20027;-73
2021/12/08 10:17:24;;;;;;;7.70;2.47;;;;;;;;;;4377361;32;19970;-74
2021/12/08 10:19:59;;;;;;;;;;;;;;;;;;;;;
2021/12/08 10:22:51;;;;;;;9.85;3.40;;;;;;;;;;4377213;32;20327;-72
2021/12/08 10:25:20;;;;;;;5.50;2.45;;;;;;;;;;4368912;32;20405;-72
2021/12/08 10:28:10;;;;;;;14.32;3.60;;;;;;;;;;4377424;32;20031;-71
2021/12/08 10:30:58;;;;;;;6.85;2.72;;;;;;;;;;4377403;32;20050;-72
2021/12/08 10:39:06;;;;;;;4.95;2.55;;;;;;;;;;4376644;32;20085;-73
2021/12/08 10:41:49;;;;;;;8.25;2.45;;;;;;;;;;4376678;32;20096;-72
2021/12/08 10:44:36;;;;;;;8.02;2.72;;;;;;;;;;4377383;32;20108;-72
2021/12/08 10:47:27;;;;;;;4.22;2.40;;;;;;;;;;4376388;32;20073;-73
2021/12/08 10:55:39;;;;;;;4.22;2.22;;;;;;;;;;4377074;32;20086;-73
2021/12/08 10:58:06;;;;;;;8.05;2.22;;;;;;;;;;4376484;32;20074;-72
2021/12/08 11:00:37;;;;;;;6.82;2.45;;;;;;;;;;4376391;32;20038;-72
2021/12/08 11:03:04;;;;;;;8.05;2.60;;;;;;;;;;4376616;32;20057;-72
2021/12/08 11:05:31;;;;;;;8.63;2.58;;;;;;;;;;4376730;32;20035;-72
2021/12/08 11:07:58;;;;;;;4.95;2.22;;;;;;;;;;4376855;32;20030;-72
2021/12/08 11:10:23;;;;;;;9.00;2.42;;;;;;;;;;4376493;32;20077;-71
2021/12/08 11:12:48;;;;;;;;;;;;;;;;;;4376193;32;20027;-72
2021/12/08 11:15:31;;;;;;;5.05;2.00;;;;;;;;;;4376224;32;20309;-72
2021/12/08 11:18:26;;;;;;;5.30;2.03;;;;;;;;;;4315405;32;20362;-70
2021/12/08 11:20:59;;;;;;;5.35;2.10;;;;;;;;;;4376622;32;20072;-73
2021/12/08 11:26:37;;;;;;;7.35;2.72;;;;;;;;;;4376603;32;20061;-72
2021/12/08 11:29:08;;;;;;;7.70;3.78;;;;;;;;;;4354456;33;20062;-73
2021/12/08 11:31:44;;;;;;;7.37;2.37;;;;;;;;;;4360918;32;20031;-72
2021/12/08 11:34:30;;;;;;;7.07;2.90;;;;;;;;;;4361811;32;20031;-72
2021/12/08 11:40:24;;;;;;;15.18;3.45;;;;;;;;;;4306314;33;20520;-73
2021/12/08 11:42:50;;;;;;;;;;;;;;;;;;4340598;33;20105;-71
2021/12/08 11:48:25;;;;;;;8.93;3.60;;;;;;;;;;4335563;33;20058;-72
2021/12/08 11:51:20;;;;;;;;;;;;;;;;;;;;;
2021/12/08 11:54:04;;;;;;;9.68;3.70;;;;;;;;;;4339723;33;20043;-73
2021/12/08 11:56:42;;;;;;;8.38;3.92;;;;;;;;;;4345746;33;20048;-72
2021/12/08 11:59:14;;;;;;;7.57;3.78;;;;;;;;;;4346408;33;20032;-72
2021/12/08 12:01:42;;;;;;;9.05;3.80;;;;;;;;;;4346264;33;20398;-72
2021/12/08 12:04:18;;;;;;;10.07;4.12;;;;;;;;;;4346248;33;20092;-72
2021/12/08 12:06:44;;;;;;;7.53;3.22;;;;;;;;;;4346510;33;20097;-72
2021/12/08 12:09:10;;;;;;;;;;;;;;;;;;4346071;33;20040;-73
2021/12/08 12:11:38;;;;;;;6.37;3.37;;;;;;;;;;4345982;33;19990;-72
2021/12/08 12:14:04;;;;;;;8.25;4.30;;;;;;;;;;4346452;33;20066;-73
2021/12/08 12:16:32;;;;;;;;;;;;;;;;;;4346033;33;20036;-73
2021/12/08 12:19:02;;;;;;;13.98;4.10;;;;;;;;;;4345788;33;20312;-72
2021/12/08 12:21:56;;;;;;;7.85;3.53;;;;;;;;;;4345586;33;20119;-72
2021/12/08 12:24:41;;;;;;;10.20;3.72;;;;;;;;;;4345597;33;20483;-73
2021/12/08 12:27:09;;;;;;;9.00;3.53;;;;;;;;;;4346050;33;20040;-72
2021/12/08 12:29:57;;;;;;;4.57;2.65;;;;;;;;;;4346455;33;20101;-73
2021/12/08 12:32:40;;;;;;;9.88;2.83;;;;;;;;;;4346131;33;20106;-72
2021/12/08 12:35:24;;;;;;;10.10;3.80;;;;;;;;;;4345859;33;20499;-72
2021/12/08 12:38:00;;;;;;;12.73;3.35;;;;;;;;;;4332404;33;20027;-72
2021/12/08 12:43:45;;;;;;;9.98;3.58;;;;;;;;;;4345820;33;20460;-72
2021/12/08 12:46:15;;;;;;;7.68;3.62;;;;;;;;;;4345789;33;20028;-72
2021/12/08 12:48:41;;;;;;;7.53;2.95;;;;;;;;;;4346048;33;20031;-72
2021/12/08 12:51:36;;;;;;;14.63;5.82;;;;;;;;;;4344477;33;20517;-73
2021/12/08 12:54:03;;;;;;;11.40;3.28;;;;;;;;;;4338930;33;20059;-73
2021/12/08 12:56:32;;;;;;;12.00;3.78;;;;;;;;;;4345487;33;20047;-73
2021/12/08 12:59:21;;;;;;;9.88;2.97;;;;;;;;;;4344000;33;20069;-72
2021/12/08 13:02:02;;;;;;;7.25;3.08;;;;;;;;;;4346067;33;20040;-73
2021/12/08 13:04:29;;;;;;;11.15;2.75;;;;;;;;;;4345187;33;20099;-73
2021/12/08 13:07:02;;;;;;;10.90;3.58;;;;;;;;;;4345659;33;20067;-74
2021/12/08 13:09:36;;;;;;;8.93;3.50;;;;;;;;;;4346423;33;20110;-73
2021/12/08 13:12:20;;;;;;;7.85;3.55;;;;;;;;;;4344050;33;20062;-73
2021/12/08 13:15:28;;;;;;;14.50;4.00;;;;;;;;;;4345463;33;20032;-73
2021/12/08 13:18:16;;;;;;;9.73;3.25;;;;;;;;;;4344871;33;20079;-73
2021/12/08 13:20:42;;;;;;;6.55;3.08;;;;;;;;;;4346154;33;20031;-72
2021/12/08 13:23:08;;;;;;;;;;;;;;;;;;4345274;33;20066;-73
2021/12/08 13:26:11;;;;;;;7.70;3.20;;;;;;;;;;4347178;33;20286;-73
2021/12/08 13:29:00;;;;;;;8.55;3.58;;;;;;;;;;4348271;33;20062;-73
2021/12/08 13:34:01;;;;;;;14.82;3.75;;;;;;;;;;4348027;33;20058;-73
2021/12/08 13:39:23;;;;;;;16.40;4.40;;;;;;;;;;4288040;33;20144;-72
2021/12/08 13:41:56;;;;;;;11.95;4.32;;;;;;;;;;4341250;33;20111;-73
2021/12/08 13:44:33;;;;;;;13.13;4.20;;;;;;;;;;4347673;33;20031;-73
2021/12/08 13:50:05;;;;;;;12.32;3.92;;;;;;;;;;4316547;33;20096;-72
2021/12/08 13:52:31;;;;;;;8.90;3.78;;;;;;;;;;4347716;33;20027;-72
2021/12/08 13:55:17;;;;;;;6.50;3.30;;;;;;;;;;4347649;33;20444;-72
2021/12/08 13:58:15;;;;;;;17.12;4.12;;;;;;;;;;4348181;33;20023;-73
2021/12/08 14:00:49;;;;;;;9.80;2.97;;;;;;;;;;4347254;33;20103;-73
2021/12/08 14:03:22;;;;;;;9.65;3.03;;;;;;;;;;4348232;33;20117;-72
2021/12/08 14:05:57;;;;;;;10.25;3.83;;;;;;;;;;4347241;33;20455;-72
2021/12/08 14:08:22;;;;;;;10.13;3.42;;;;;;;;;;4347932;33;20070;-73
2021/12/08 14:10:47;;;;;;;;;;;;;;;;;;4359806;32;20039;-73
2021/12/08 14:13:22;;;;;;;10.65;3.75;;;;;;;;;;4362575;32;20288;-73
2021/12/08 14:15:54;;;;;;;10.88;3.40;;;;;;;;;;4362972;32;20039;-73
2021/12/08 14:18:38;;;;;;;11.90;3.65;;;;;;;;;;4362574;32;20036;-73
2021/12/08 14:21:21;;;;;;;11.90;3.40;;;;;;;;;;4362326;32;20143;-73
2021/12/08 14:24:20;;;;;;;;;;;;;;;;;;;;;
2021/12/08 14:26:58;;;;;;;9.88;3.80;;;;;;;;;;4372691;32;20092;-72
2021/12/08 14:29:32;;;;;;;6.45;3.42;;;;;;;;;;4378252;32;20388;-72
2021/12/08 14:31:58;;;;;;;14.18;4.75;;;;;;;;;;4377724;32;20042;-73
2021/12/08 14:34:23;;;;;;;;;;;;;;;;;;4377573;32;20065;-73
2021/12/08 14:37:03;;;;;;;7.47;3.37;;;;;;;;;;4375157;32;19938;-73
2021/12/08 14:40:27;;;;;;;10.73;3.25;;;;;;;;;;4376847;32;20027;-72
2021/12/08 14:42:33;;;;;;;8.13;3.50;;;;;;;;;;4374190;32;20065;-72
2021/12/08 14:45:20;;;;;;;10.65;3.85;;;;;;;;;;4377226;32;20076;-72
2021/12/08 14:47:51;;;;;;;11.07;4.32;;;;;;;;;;4375538;32;20460;-71
2021/12/08 14:50:26;;;;;;;11.98;3.85;;;;;;;;;;4378756;32;20073;-72
2021/12/08 14:53:04;;;;;;;8.15;3.90;;;;;;;;;;4377379;32;20394;-73
2021/12/08 14:55:32;;;;;;;7.55;3.45;;;;;;;;;;4375564;32;20043;-72
2021/12/08 14:58:00;;;;;;;6.37;3.28;;;;;;;;;;4376569;32;20360;-73
2021/12/08 15:03:30;;;;;;;12.85;5.10;;;;;;;;;;4376908;32;20502;-73
2021/12/08 15:05:55;;;;;;;10.38;4.95;;;;;;;;;;4362877;32;20582;-73
2021/12/08 15:08:26;;;;;;;;;;;;;;;;;;4376846;32;20046;-72
2021/12/08 15:10:52;;;;;;;11.20;4.57;;;;;;;;;;4376257;32;19934;-72
2021/12/08 15:13:36;;;;;;;9.80;4.90;;;;;;;;;;4362624;32;20022;-72
2021/12/08 15:16:18;;;;;;;10.05;4.90;;;;;;;;;;4376853;32;20045;-73
2021/12/08 15:18:44;;;;;;;14.73;4.68;;;;;;;;;;4376407;32;20027;-73
2021/12/08 15:21:11;;;;;;;12.27;4.97;;;;;;;;;;4376755;32;20061;-72
2021/12/08 15:23:40;;;;;;;15.13;5.50;;;;;;;;;;4376080;32;20035;-72
2021/12/08 15:26:15;;;;;;;17.12;4.75;;;;;;;;;;4376610;32;20089;-72
2021/12/08 15:28:48;;;;;;;7.90;4.20;;;;;;;;;;4376326;32;20027;-72
2021/12/08 15:31:14;;;;;;;12.37;4.72;;;;;;;;;;4375097;32;20131;-73
2021/12/08 15:33:47;;;;;;;;;;;;;;;;;;4376517;32;20031;-73
2021/12/08 15:36:14;;;;;;;14.48;5.90;;;;;;;;;;4375125;32;20387;-73
2021/12/08 15:38:45;;;;;;;9.48;5.78;;;;;;;;;;4376279;32;20398;-74
2021/12/08 15:41:20;;;;;;;13.18;4.62;;;;;;;;;;4376480;32;20031;-74
2021/12/08 15:43:48;;;;;;;13.65;7.55;;;;;;;;;;4376067;32;20097;-74
2021/12/08 15:46:25;;;;;;;14.35;4.75;;;;;;;;;;4376518;32;20435;-73
2021/12/08 15:48:53;;;;;;;9.90;5.43;;;;;;;;;;4362258;32;20038;-74
2021/12/08 15:51:22;;;;;;;14.13;8.90;;;;;;;;;;4375841;32;20062;-72
2021/12/08 15:53:49;;;;;;;13.32;6.65;;;;;;;;;;4375196;32;20107;-72
2021/12/08 15:56:19;;;;;;;11.00;6.45;;;;;;;;;;4374843;32;20429;-73
2021/12/08 15:58:44;;;;;;;10.00;5.00;;;;;;;;;;4361652;32;20042;-72
2021/12/08 16:01:09;;;;;;;;;;;;;;;;;;4376090;32;20088;-72
2021/12/08 16:04:01;;;;;;;14.26;6.96;;;;;;;;;;4376352;32;19946;-72
2021/12/08 16:06:38;;;;;;;12.57;7.15;;;;;;;;;;4373684;32;20035;-72
2021/12/08 16:09:47;;;;;;;15.13;8.88;;;;;;;;;;4361108;32;20039;-72
2021/12/08 16:12:19;;;;;;;17.50;10.00;;;;;;;;;;4371595;32;20066;-72
2021/12/08 16:14:55;;;;;;;20.80;12.13;;;;;;;;;;4375769;32;20042;-72
2021/12/08 16:17:23;;;;;;;13.55;7.80;;;;;;;;;;4375427;32;20027;-73
2021/12/08 16:19:59;;;;;;;14.80;5.43;;;;;;;;;;4375326;32;20096;-73
2021/12/08 16:22:24;;;;;;;10.90;6.43;;;;;;;;;;4376131;32;20084;-72
2021/12/08 16:24:53;;;;;;;;;;;;;;;;;;4375909;32;20038;-73
2021/12/08 16:27:19;;;;;;;10.35;6.90;;;;;;;;;;4375713;32;19950;-72
2021/12/08 16:29:54;;;;;;;12.05;7.15;;;;;;;;;;4375674;32;20327;-72
2021/12/08 16:32:48;;;;;;;16.90;9.13;;;;;;;;;;4375033;32;20388;-72
2021/12/08 16:35:13;;;;;;;11.02;4.95;;;;;;;;;;4375810;32;20042;-73
2021/12/08 16:37:41;;;;;;;;;;;;;;;;;;4375261;32;20073;-72
2021/12/08 16:43:03;;;;;;;9.85;4.85;;;;;;;;;;4374566;32;20031;-72
2021/12/08 16:45:36;;;;;;;8.80;4.65;;;;;;;;;;4375184;32;20133;-72
2021/12/08 16:48:11;;;;;;;11.43;5.22;;;;;;;;;;4370416;32;20023;-73
2021/12/08 16:50:46;;;;;;;12.30;5.45;;;;;;;;;;4361210;32;20023;-72
2021/12/08 16:53:12;;;;;;;14.15;7.68;;;;;;;;;;4360274;32;20035;-74
2021/12/08 16:58:36;;;;;;;10.10;5.97;;;;;;;;;;4354612;32;20081;-72
2021/12/08 17:03:46;;;;;;;11.52;6.47;;;;;;;;;;4359976;33;20022;-73
2021/12/08 17:06:11;;;;;;;;;;;;;;;;;;4359325;33;20094;-73
2021/12/08 17:08:36;;;;;;;11.50;5.70;;;;;;;;;;4359354;33;19958;-73
2021/12/08 17:11:01;;;;;;;;;;;;;;;;;;4346145;33;20032;-72
2021/12/08 17:13:35;;;;;;;11.30;5.90;;;;;;;;;;4359812;33;19930;-73